Airfield :
LOGIN :

Register | Disclaimer

   EN    FR    IT 

 










Legend :    VFR   Marginal VFR   IFR   Intensive IFR   Very Intensive IFR
Visi :
Ceiling :
>= 8 km
>= 3000ft
5 to 8 km
1000 to 3000 ft
1500m to 5 km
500 to 1000 ft
800 to 1500m
200 to 500 ft
< 800m
< 200 ft
Symbols :   Thunderstorms  Fog  Heavy snow  Heavy precipitations  Wind > 20 kt
SIGMETs :     Misc.  Thunderstorms  Icing  Turbulence  Mountain Waves  Volcanic Ashes







- Airport Elevation : 26 ft
- IATA code : GLA
- Download approach charts


EGPF - Glasgow

CURRENT METAR :
  • 251420Z AUTO 20009KT 170V240 9999 SCT029/// BKN034/// OVC047/// //////TCU 12/09 Q1027

EXPIRED METARs :
  • 251350Z AUTO 20011KT 9999 -RA BKN040/// OVC047/// //////TCU 12/08 Q1028
  • 251320Z AUTO 21015KT 9999 OVC049/// //////TCU 12/07 Q1028
  • 251250Z AUTO 21012KT 9999 -RA BKN048 12/07 Q1028
  • 251220Z AUTO 21020G31KT 9999 SCT030 12/07 Q1029
  • 251150Z AUTO 22021G31KT 9999 SCT031 13/07 Q1029

TAF TAF EGPF
Valid from the 25 at 12:00 until the 26 at 12:00 UTC


251101Z 2512/2612 20018KT 9999 FEW025
TEMPO 2512/2612 23022G34KT 6000 RA BKN012
PROB40
TEMPO 2523/2612 3000 RADZ BKN005
ATIS : +44 141 887 7449
No reported NOTAMs for that airfield.
2 SIGMETs reported for the Scottish FIR (EGPX) :
 
Severe mountain waves
EGPX SIGMET 04 VALID 251400/251800 EGRR
EGPX SCOTTISH FIR SEV MTW FCST WI N5839 W00452 - N5934 W00246 - N5736 E00010 - N5502 W00152 - N5502 W00459 - N5725 W00626 - N5839 W00452 FL030/200 STNR NC=
Severe turbulence
EGPX SIGMET 03 VALID 251400/251800 EGRR
EGPX SCOTTISH FIR SEV TURB FCST NW OF LINE N5928 E00054 - N5407 W00632 SFC/FL060 MOV E 25KT NC=



MET'MAP, your aeronautical weather chart ! - Copyright ORBIFLY December 2007 - Disclaimer

ORBIFLY MET'MAP TEAM :

Programming & Development : Alexandra Zaïnal
Concept & Development : Baudouin d'Aumeries
Co-Development & Prog : Marc-Olivier Méhu
Technical & hardware support : Manuel Goepfert

Contact : metmap@orbifly.com




SOURCES & CREDITS :

   NOAA